sensor_id;sensor_type;location;lat;lon;timestamp;temperature;humidity
15483;DHT22;7843;50.330;7.312;2023-04-25T00:00:46;8.10;99.90
15483;DHT22;7843;50.330;7.312;2023-04-25T00:03:13;8.10;99.90
15483;DHT22;7843;50.330;7.312;2023-04-25T00:05:40;8.00;99.90
15483;DHT22;7843;50.330;7.312;2023-04-25T00:08:07;8.00;99.90
15483;DHT22;7843;50.330;7.312;2023-04-25T00:10:33;8.00;99.90
15483;DHT22;7843;50.330;7.312;2023-04-25T00:13:00;8.00;99.90
15483;DHT22;7843;50.330;7.312;2023-04-25T00:15:29;8.00;99.90
15483;DHT22;7843;50.330;7.312;2023-04-25T00:17:57;8.00;99.90
15483;DHT22;7843;50.330;7.312;2023-04-25T00:20:23;8.00;99.90
15483;DHT22;7843;50.330;7.312;2023-04-25T00:22:51;8.00;99.90
15483;DHT22;7843;50.330;7.312;2023-04-25T00:25:19;8.00;99.90
15483;DHT22;7843;50.330;7.312;2023-04-25T00:27:46;8.00;99.90
15483;DHT22;7843;50.330;7.312;2023-04-25T00:30:13;8.00;99.90
15483;DHT22;7843;50.330;7.312;2023-04-25T00:32:40;7.90;99.90
15483;DHT22;7843;50.330;7.312;2023-04-25T00:35:07;7.90;99.90
15483;DHT22;7843;50.330;7.312;2023-04-25T00:37:34;7.90;99.90
15483;DHT22;7843;50.330;7.312;2023-04-25T00:40:00;7.90;99.90
15483;DHT22;7843;50.330;7.312;2023-04-25T00:42:28;7.90;99.90
15483;DHT22;7843;50.330;7.312;2023-04-25T00:44:55;7.90;99.90
15483;DHT22;7843;50.330;7.312;2023-04-25T00:47:22;7.90;99.90
15483;DHT22;7843;50.330;7.312;2023-04-25T00:49:50;8.00;99.90
15483;DHT22;7843;50.330;7.312;2023-04-25T00:52:16;7.90;99.90
15483;DHT22;7843;50.330;7.312;2023-04-25T00:54:43;7.90;99.90
15483;DHT22;7843;50.330;7.312;2023-04-25T00:57:10;7.90;99.90
15483;DHT22;7843;50.330;7.312;2023-04-25T00:59:37;7.90;99.90
15483;DHT22;7843;50.330;7.312;2023-04-25T01:02:04;7.80;99.90
15483;DHT22;7843;50.330;7.312;2023-04-25T01:04:31;7.70;99.90
15483;DHT22;7843;50.330;7.312;2023-04-25T01:06:58;7.60;99.90
15483;DHT22;7843;50.330;7.312;2023-04-25T01:09:25;7.60;99.90
15483;DHT22;7843;50.330;7.312;2023-04-25T01:11:52;7.50;99.90
15483;DHT22;7843;50.330;7.312;2023-04-25T01:14:19;7.40;99.90
15483;DHT22;7843;50.330;7.312;2023-04-25T01:16:45;7.30;99.90
15483;DHT22;7843;50.330;7.312;2023-04-25T01:19:16;7.20;99.90
15483;DHT22;7843;50.330;7.312;2023-04-25T01:21:43;7.30;99.90
15483;DHT22;7843;50.330;7.312;2023-04-25T01:24:10;7.20;99.90
15483;DHT22;7843;50.330;7.312;2023-04-25T01:26:38;7.20;99.90
15483;DHT22;7843;50.330;7.312;2023-04-25T01:29:07;7.20;99.90
15483;DHT22;7843;50.330;7.312;2023-04-25T01:31:34;7.10;99.90
15483;DHT22;7843;50.330;7.312;2023-04-25T01:34:01;7.20;99.90
15483;DHT22;7843;50.330;7.312;2023-04-25T01:36:28;7.20;99.90
15483;DHT22;7843;50.330;7.312;2023-04-25T01:38:55;7.20;99.90
15483;DHT22;7843;50.330;7.312;2023-04-25T01:41:22;7.20;99.90
15483;DHT22;7843;50.330;7.312;2023-04-25T01:43:49;7.20;99.90
15483;DHT22;7843;50.330;7.312;2023-04-25T01:46:16;7.10;99.90
15483;DHT22;7843;50.330;7.312;2023-04-25T01:48:43;7.10;99.90
15483;DHT22;7843;50.330;7.312;2023-04-25T01:51:10;7.00;99.90
15483;DHT22;7843;50.330;7.312;2023-04-25T01:53:38;6.90;99.90
15483;DHT22;7843;50.330;7.312;2023-04-25T01:56:05;6.90;99.90
15483;DHT22;7843;50.330;7.312;2023-04-25T01:58:32;6.90;99.90
15483;DHT22;7843;50.330;7.312;2023-04-25T02:00:59;6.80;99.90
15483;DHT22;7843;50.330;7.312;2023-04-25T02:03:25;6.80;99.90
15483;DHT22;7843;50.330;7.312;2023-04-25T02:05:52;6.90;99.90
15483;DHT22;7843;50.330;7.312;2023-04-25T02:08:19;6.80;99.90
15483;DHT22;7843;50.330;7.312;2023-04-25T02:10:46;6.80;99.90
15483;DHT22;7843;50.330;7.312;2023-04-25T02:13:13;6.80;99.90
15483;DHT22;7843;50.330;7.312;2023-04-25T02:15:39;6.80;99.90
15483;DHT22;7843;50.330;7.312;2023-04-25T02:18:06;6.80;99.90
15483;DHT22;7843;50.330;7.312;2023-04-25T02:20:34;6.80;99.90
15483;DHT22;7843;50.330;7.312;2023-04-25T02:23:00;6.80;99.90
15483;DHT22;7843;50.330;7.312;2023-04-25T02:25:27;6.80;99.90
15483;DHT22;7843;50.330;7.312;2023-04-25T02:27:54;6.80;99.90
15483;DHT22;7843;50.330;7.312;2023-04-25T02:30:21;6.80;99.90
15483;DHT22;7843;50.330;7.312;2023-04-25T02:32:47;6.80;99.90
15483;DHT22;7843;50.330;7.312;2023-04-25T02:35:14;6.70;99.90
15483;DHT22;7843;50.330;7.312;2023-04-25T02:37:41;6.80;99.90
15483;DHT22;7843;50.330;7.312;2023-04-25T02:40:08;6.80;99.90
15483;DHT22;7843;50.330;7.312;2023-04-25T02:42:35;6.70;99.90
15483;DHT22;7843;50.330;7.312;2023-04-25T02:45:02;6.70;99.90
15483;DHT22;7843;50.330;7.312;2023-04-25T02:47:29;6.70;99.90
15483;DHT22;7843;50.330;7.312;2023-04-25T02:49:56;6.70;99.90
15483;DHT22;7843;50.330;7.312;2023-04-25T02:52:23;6.80;99.90
15483;DHT22;7843;50.330;7.312;2023-04-25T02:54:50;6.80;99.90
15483;DHT22;7843;50.330;7.312;2023-04-25T02:57:16;6.80;99.90
15483;DHT22;7843;50.330;7.312;2023-04-25T02:59:43;6.90;99.90
15483;DHT22;7843;50.330;7.312;2023-04-25T03:02:10;6.90;99.90
15483;DHT22;7843;50.330;7.312;2023-04-25T03:04:37;6.90;99.90
15483;DHT22;7843;50.330;7.312;2023-04-25T03:07:04;6.80;99.90
15483;DHT22;7843;50.330;7.312;2023-04-25T03:09:30;6.80;99.90
15483;DHT22;7843;50.330;7.312;2023-04-25T03:11:57;6.80;99.90
15483;DHT22;7843;50.330;7.312;2023-04-25T03:14:24;6.90;99.90
15483;DHT22;7843;50.330;7.312;2023-04-25T03:16:50;6.80;99.90
15483;DHT22;7843;50.330;7.312;2023-04-25T03:19:17;6.80;99.90
15483;DHT22;7843;50.330;7.312;2023-04-25T03:21:44;6.80;99.90
15483;DHT22;7843;50.330;7.312;2023-04-25T03:24:11;6.80;99.90
15483;DHT22;7843;50.330;7.312;2023-04-25T03:26:38;6.80;99.90
15483;DHT22;7843;50.330;7.312;2023-04-25T03:29:04;6.70;99.90
15483;DHT22;7843;50.330;7.312;2023-04-25T03:31:31;6.70;99.90
15483;DHT22;7843;50.330;7.312;2023-04-25T03:33:58;6.60;99.90
15483;DHT22;7843;50.330;7.312;2023-04-25T03:36:25;6.50;99.90
15483;DHT22;7843;50.330;7.312;2023-04-25T03:38:51;6.40;99.90
15483;DHT22;7843;50.330;7.312;2023-04-25T03:41:18;6.30;99.90
15483;DHT22;7843;50.330;7.312;2023-04-25T03:43:44;6.30;99.90
15483;DHT22;7843;50.330;7.312;2023-04-25T03:46:11;6.30;99.90
15483;DHT22;7843;50.330;7.312;2023-04-25T03:48:38;6.30;99.90
15483;DHT22;7843;50.330;7.312;2023-04-25T03:51:05;6.30;99.90
15483;DHT22;7843;50.330;7.312;2023-04-25T03:53:31;6.30;99.90
15483;DHT22;7843;50.330;7.312;2023-04-25T03:55:58;6.30;99.90
15483;DHT22;7843;50.330;7.312;2023-04-25T03:58:24;6.40;99.90
15483;DHT22;7843;50.330;7.312;2023-04-25T04:00:51;6.40;99.90
15483;DHT22;7843;50.330;7.312;2023-04-25T04:03:18;6.50;99.90
15483;DHT22;7843;50.330;7.312;2023-04-25T04:05:44;6.50;99.90
15483;DHT22;7843;50.330;7.312;2023-04-25T04:08:11;6.50;99.90
15483;DHT22;7843;50.330;7.312;2023-04-25T04:10:38;6.50;99.90
15483;DHT22;7843;50.330;7.312;2023-04-25T04:13:05;6.50;99.90
15483;DHT22;7843;50.330;7.312;2023-04-25T04:15:31;6.50;99.90
15483;DHT22;7843;50.330;7.312;2023-04-25T04:17:59;6.50;99.90
15483;DHT22;7843;50.330;7.312;2023-04-25T04:20:29;6.50;99.90
15483;DHT22;7843;50.330;7.312;2023-04-25T04:22:56;6.50;99.90
15483;DHT22;7843;50.330;7.312;2023-04-25T04:25:23;6.50;99.90
15483;DHT22;7843;50.330;7.312;2023-04-25T04:27:50;6.50;99.90
15483;DHT22;7843;50.330;7.312;2023-04-25T04:30:22;6.50;99.90
15483;DHT22;7843;50.330;7.312;2023-04-25T04:32:51;6.50;99.90
15483;DHT22;7843;50.330;7.312;2023-04-25T04:35:17;6.50;99.90
15483;DHT22;7843;50.330;7.312;2023-04-25T04:37:44;6.50;99.90
15483;DHT22;7843;50.330;7.312;2023-04-25T04:40:12;6.50;99.90
15483;DHT22;7843;50.330;7.312;2023-04-25T04:42:42;6.50;99.90
15483;DHT22;7843;50.330;7.312;2023-04-25T04:45:09;6.50;99.90
15483;DHT22;7843;50.330;7.312;2023-04-25T04:47:37;6.50;99.90
15483;DHT22;7843;50.330;7.312;2023-04-25T04:50:04;6.50;99.90
15483;DHT22;7843;50.330;7.312;2023-04-25T04:52:30;6.50;99.90
15483;DHT22;7843;50.330;7.312;2023-04-25T04:54:57;6.50;99.90
15483;DHT22;7843;50.330;7.312;2023-04-25T04:57:24;6.40;99.90
15483;DHT22;7843;50.330;7.312;2023-04-25T04:59:51;6.40;99.90
15483;DHT22;7843;50.330;7.312;2023-04-25T05:02:17;6.40;99.90
15483;DHT22;7843;50.330;7.312;2023-04-25T05:04:44;6.40;99.90
15483;DHT22;7843;50.330;7.312;2023-04-25T05:07:11;6.40;99.90
15483;DHT22;7843;50.330;7.312;2023-04-25T05:09:38;6.50;99.90
15483;DHT22;7843;50.330;7.312;2023-04-25T05:12:05;6.50;99.90
15483;DHT22;7843;50.330;7.312;2023-04-25T05:14:31;6.50;99.80
15483;DHT22;7843;50.330;7.312;2023-04-25T05:16:58;6.50;99.90
15483;DHT22;7843;50.330;7.312;2023-04-25T05:19:25;6.50;99.90
15483;DHT22;7843;50.330;7.312;2023-04-25T05:21:51;6.60;99.90
15483;DHT22;7843;50.330;7.312;2023-04-25T05:24:18;6.60;99.90
15483;DHT22;7843;50.330;7.312;2023-04-25T05:26:45;6.60;99.60
15483;DHT22;7843;50.330;7.312;2023-04-25T05:29:11;6.60;99.90
15483;DHT22;7843;50.330;7.312;2023-04-25T05:31:38;6.60;99.90
15483;DHT22;7843;50.330;7.312;2023-04-25T05:34:05;6.70;99.90
15483;DHT22;7843;50.330;7.312;2023-04-25T05:36:31;6.70;99.90
15483;DHT22;7843;50.330;7.312;2023-04-25T05:38:59;6.70;99.90
15483;DHT22;7843;50.330;7.312;2023-04-25T05:41:25;6.80;99.90
15483;DHT22;7843;50.330;7.312;2023-04-25T05:43:52;6.80;99.90
15483;DHT22;7843;50.330;7.312;2023-04-25T05:46:20;6.90;99.70
15483;DHT22;7843;50.330;7.312;2023-04-25T05:48:47;7.00;99.30
15483;DHT22;7843;50.330;7.312;2023-04-25T05:51:13;7.00;99.20
15483;DHT22;7843;50.330;7.312;2023-04-25T05:53:40;7.00;98.90
15483;DHT22;7843;50.330;7.312;2023-04-25T05:56:08;7.00;99.00
15483;DHT22;7843;50.330;7.312;2023-04-25T05:58:35;7.00;99.40
15483;DHT22;7843;50.330;7.312;2023-04-25T06:01:01;7.00;98.60
15483;DHT22;7843;50.330;7.312;2023-04-25T06:03:29;7.10;98.70
15483;DHT22;7843;50.330;7.312;2023-04-25T06:05:56;7.20;99.10
15483;DHT22;7843;50.330;7.312;2023-04-25T06:08:23;7.30;98.30
15483;DHT22;7843;50.330;7.312;2023-04-25T06:10:49;7.40;97.90
15483;DHT22;7843;50.330;7.312;2023-04-25T06:13:16;7.40;97.70
15483;DHT22;7843;50.330;7.312;2023-04-25T06:15:43;7.50;97.20
15483;DHT22;7843;50.330;7.312;2023-04-25T06:18:10;7.50;97.20
15483;DHT22;7843;50.330;7.312;2023-04-25T06:20:37;7.50;96.60
15483;DHT22;7843;50.330;7.312;2023-04-25T06:23:03;7.60;96.70
15483;DHT22;7843;50.330;7.312;2023-04-25T06:25:30;7.60;97.20
15483;DHT22;7843;50.330;7.312;2023-04-25T06:27:57;7.60;95.90
15483;DHT22;7843;50.330;7.312;2023-04-25T06:30:23;7.60;95.70
15483;DHT22;7843;50.330;7.312;2023-04-25T06:32:52;7.50;96.00
15483;DHT22;7843;50.330;7.312;2023-04-25T06:35:20;7.40;96.30
15483;DHT22;7843;50.330;7.312;2023-04-25T06:37:47;7.40;96.40
15483;DHT22;7843;50.330;7.312;2023-04-25T06:40:13;7.40;96.60
15483;DHT22;7843;50.330;7.312;2023-04-25T06:42:43;7.50;95.60
15483;DHT22;7843;50.330;7.312;2023-04-25T06:45:10;7.60;96.10
15483;DHT22;7843;50.330;7.312;2023-04-25T06:47:36;7.70;95.70
15483;DHT22;7843;50.330;7.312;2023-04-25T06:50:04;7.70;95.70
15483;DHT22;7843;50.330;7.312;2023-04-25T06:52:31;7.80;95.60
15483;DHT22;7843;50.330;7.312;2023-04-25T06:54:58;7.90;96.20
15483;DHT22;7843;50.330;7.312;2023-04-25T06:57:24;8.10;95.70
15483;DHT22;7843;50.330;7.312;2023-04-25T06:59:52;8.10;95.00
15483;DHT22;7843;50.330;7.312;2023-04-25T07:02:18;8.10;94.90
15483;DHT22;7843;50.330;7.312;2023-04-25T07:04:45;8.10;94.00
15483;DHT22;7843;50.330;7.312;2023-04-25T07:07:12;8.20;93.50
15483;DHT22;7843;50.330;7.312;2023-04-25T07:09:39;8.10;93.00
15483;DHT22;7843;50.330;7.312;2023-04-25T07:12:06;8.10;93.20
15483;DHT22;7843;50.330;7.312;2023-04-25T07:14:32;8.20;93.30
15483;DHT22;7843;50.330;7.312;2023-04-25T07:16:59;8.20;93.40
15483;DHT22;7843;50.330;7.312;2023-04-25T07:19:26;8.10;92.70
15483;DHT22;7843;50.330;7.312;2023-04-25T07:21:53;8.20;93.40
15483;DHT22;7843;50.330;7.312;2023-04-25T07:24:20;8.20;92.90
15483;DHT22;7843;50.330;7.312;2023-04-25T07:26:46;8.10;93.00
15483;DHT22;7843;50.330;7.312;2023-04-25T07:29:13;8.00;92.90
15483;DHT22;7843;50.330;7.312;2023-04-25T07:31:40;8.00;94.00
15483;DHT22;7843;50.330;7.312;2023-04-25T07:34:06;8.00;93.50
15483;DHT22;7843;50.330;7.312;2023-04-25T07:36:33;8.10;93.60
15483;DHT22;7843;50.330;7.312;2023-04-25T07:39:00;8.30;93.20
15483;DHT22;7843;50.330;7.312;2023-04-25T07:41:27;8.40;92.90
15483;DHT22;7843;50.330;7.312;2023-04-25T07:43:53;8.50;93.10
15483;DHT22;7843;50.330;7.312;2023-04-25T07:46:20;8.60;91.70
15483;DHT22;7843;50.330;7.312;2023-04-25T07:48:46;8.40;92.10
15483;DHT22;7843;50.330;7.312;2023-04-25T07:51:13;8.30;91.60
15483;DHT22;7843;50.330;7.312;2023-04-25T07:53:40;8.20;92.40
15483;DHT22;7843;50.330;7.312;2023-04-25T07:56:07;8.20;92.20
15483;DHT22;7843;50.330;7.312;2023-04-25T07:58:34;8.30;93.20
15483;DHT22;7843;50.330;7.312;2023-04-25T08:01:01;8.50;93.10
15483;DHT22;7843;50.330;7.312;2023-04-25T08:03:27;8.60;91.00
15483;DHT22;7843;50.330;7.312;2023-04-25T08:05:54;8.40;89.90
15483;DHT22;7843;50.330;7.312;2023-04-25T08:08:22;8.60;91.30
15483;DHT22;7843;50.330;7.312;2023-04-25T08:10:48;8.70;91.10
15483;DHT22;7843;50.330;7.312;2023-04-25T08:13:15;8.80;88.60
15483;DHT22;7843;50.330;7.312;2023-04-25T08:15:41;8.80;88.60
15483;DHT22;7843;50.330;7.312;2023-04-25T08:18:08;8.90;88.80
15483;DHT22;7843;50.330;7.312;2023-04-25T08:20:35;8.70;87.70
15483;DHT22;7843;50.330;7.312;2023-04-25T08:23:02;8.60;88.00
15483;DHT22;7843;50.330;7.312;2023-04-25T08:25:28;8.90;90.00
15483;DHT22;7843;50.330;7.312;2023-04-25T08:27:55;9.20;89.10
15483;DHT22;7843;50.330;7.312;2023-04-25T08:30:22;9.40;87.00
15483;DHT22;7843;50.330;7.312;2023-04-25T08:32:49;9.60;87.00
15483;DHT22;7843;50.330;7.312;2023-04-25T08:35:16;9.70;85.10
15483;DHT22;7843;50.330;7.312;2023-04-25T08:37:43;10.00;85.30
15483;DHT22;7843;50.330;7.312;2023-04-25T08:40:13;10.20;84.40
15483;DHT22;7843;50.330;7.312;2023-04-25T08:42:41;10.20;83.60
15483;DHT22;7843;50.330;7.312;2023-04-25T08:45:09;10.00;84.20
15483;DHT22;7843;50.330;7.312;2023-04-25T08:47:38;9.90;84.50
15483;DHT22;7843;50.330;7.312;2023-04-25T08:50:05;9.80;84.80
15483;DHT22;7843;50.330;7.312;2023-04-25T08:52:36;9.80;85.00
15483;DHT22;7843;50.330;7.312;2023-04-25T08:55:05;9.80;84.80
15483;DHT22;7843;50.330;7.312;2023-04-25T08:57:33;9.80;84.00
15483;DHT22;7843;50.330;7.312;2023-04-25T09:00:01;9.90;84.00
15483;DHT22;7843;50.330;7.312;2023-04-25T09:02:29;10.10;83.20
15483;DHT22;7843;50.330;7.312;2023-04-25T09:04:56;10.30;82.50
15483;DHT22;7843;50.330;7.312;2023-04-25T09:07:23;10.20;82.40
15483;DHT22;7843;50.330;7.312;2023-04-25T09:09:52;10.20;81.00
15483;DHT22;7843;50.330;7.312;2023-04-25T09:12:19;10.00;80.80
15483;DHT22;7843;50.330;7.312;2023-04-25T09:15:09;9.70;81.80
15483;DHT22;7843;50.330;7.312;2023-04-25T09:17:36;9.50;82.70
15483;DHT22;7843;50.330;7.312;2023-04-25T09:20:11;9.40;83.20
15483;DHT22;7843;50.330;7.312;2023-04-25T09:22:38;9.20;83.80
15483;DHT22;7843;50.330;7.312;2023-04-25T09:25:10;9.10;82.80
15483;DHT22;7843;50.330;7.312;2023-04-25T09:27:50;9.00;82.70
15483;DHT22;7843;50.330;7.312;2023-04-25T09:30:18;8.80;82.80
15483;DHT22;7843;50.330;7.312;2023-04-25T09:32:45;8.80;83.40
15483;DHT22;7843;50.330;7.312;2023-04-25T09:35:23;8.90;83.70
15483;DHT22;7843;50.330;7.312;2023-04-25T09:37:50;9.10;82.40
15483;DHT22;7843;50.330;7.312;2023-04-25T09:40:18;9.30;81.60
15483;DHT22;7843;50.330;7.312;2023-04-25T09:42:44;9.50;80.90
15483;DHT22;7843;50.330;7.312;2023-04-25T09:45:13;9.70;78.30
15483;DHT22;7843;50.330;7.312;2023-04-25T09:47:43;9.80;77.90
15483;DHT22;7843;50.330;7.312;2023-04-25T09:50:17;9.90;78.80
15483;DHT22;7843;50.330;7.312;2023-04-25T09:52:45;10.00;77.80
15483;DHT22;7843;50.330;7.312;2023-04-25T09:55:12;10.20;76.60
15483;DHT22;7843;50.330;7.312;2023-04-25T09:57:38;10.40;76.60
15483;DHT22;7843;50.330;7.312;2023-04-25T10:00:07;10.50;74.20
15483;DHT22;7843;50.330;7.312;2023-04-25T10:02:38;10.50;75.70
15483;DHT22;7843;50.330;7.312;2023-04-25T10:05:07;10.60;78.40
15483;DHT22;7843;50.330;7.312;2023-04-25T10:07:36;10.80;78.30
15483;DHT22;7843;50.330;7.312;2023-04-25T10:10:05;10.90;77.80
15483;DHT22;7843;50.330;7.312;2023-04-25T10:12:36;11.20;76.60
15483;DHT22;7843;50.330;7.312;2023-04-25T10:15:03;11.40;77.00
15483;DHT22;7843;50.330;7.312;2023-04-25T10:17:31;11.20;74.00
15483;DHT22;7843;50.330;7.312;2023-04-25T10:20:03;11.40;76.10
15483;DHT22;7843;50.330;7.312;2023-04-25T10:22:39;11.40;75.50
15483;DHT22;7843;50.330;7.312;2023-04-25T10:25:08;11.50;75.30
15483;DHT22;7843;50.330;7.312;2023-04-25T10:27:35;11.60;76.20
15483;DHT22;7843;50.330;7.312;2023-04-25T10:30:23;11.50;75.60
15483;DHT22;7843;50.330;7.312;2023-04-25T10:32:50;11.50;75.10
15483;DHT22;7843;50.330;7.312;2023-04-25T10:35:19;11.30;73.60
15483;DHT22;7843;50.330;7.312;2023-04-25T10:38:09;11.40;76.40
15483;DHT22;7843;50.330;7.312;2023-04-25T10:40:36;11.30;75.30
15483;DHT22;7843;50.330;7.312;2023-04-25T10:46:01;11.20;76.50
15483;DHT22;7843;50.330;7.312;2023-04-25T10:48:31;10.90;75.20
15483;DHT22;7843;50.330;7.312;2023-04-25T10:51:14;10.60;75.80
15483;DHT22;7843;50.330;7.312;2023-04-25T10:53:48;10.50;77.10
15483;DHT22;7843;50.330;7.312;2023-04-25T10:56:25;10.50;75.90
15483;DHT22;7843;50.330;7.312;2023-04-25T10:59:10;10.40;75.00
15483;DHT22;7843;50.330;7.312;2023-04-25T11:01:38;10.30;74.60
15483;DHT22;7843;50.330;7.312;2023-04-25T11:04:05;10.20;73.60
15483;DHT22;7843;50.330;7.312;2023-04-25T11:06:42;10.30;75.50
15483;DHT22;7843;50.330;7.312;2023-04-25T11:09:13;10.40;75.20
15483;DHT22;7843;50.330;7.312;2023-04-25T11:11:40;10.70;73.20
15483;DHT22;7843;50.330;7.312;2023-04-25T11:14:09;11.10;73.10
15483;DHT22;7843;50.330;7.312;2023-04-25T11:16:35;11.60;72.20
15483;DHT22;7843;50.330;7.312;2023-04-25T11:19:02;12.00;71.10
15483;DHT22;7843;50.330;7.312;2023-04-25T11:21:30;12.10;70.10
15483;DHT22;7843;50.330;7.312;2023-04-25T11:23:59;12.20;70.30
15483;DHT22;7843;50.330;7.312;2023-04-25T11:26:26;12.40;70.70
15483;DHT22;7843;50.330;7.312;2023-04-25T11:28:57;12.50;70.10
15483;DHT22;7843;50.330;7.312;2023-04-25T11:31:25;12.90;71.10
15483;DHT22;7843;50.330;7.312;2023-04-25T11:33:53;13.00;70.80
15483;DHT22;7843;50.330;7.312;2023-04-25T11:36:23;13.10;68.60
15483;DHT22;7843;50.330;7.312;2023-04-25T11:38:51;13.60;69.60
15483;DHT22;7843;50.330;7.312;2023-04-25T11:41:19;14.60;67.30
15483;DHT22;7843;50.330;7.312;2023-04-25T11:43:46;15.20;66.10
15483;DHT22;7843;50.330;7.312;2023-04-25T11:46:14;15.20;64.10
15483;DHT22;7843;50.330;7.312;2023-04-25T11:48:42;14.90;64.40
15483;DHT22;7843;50.330;7.312;2023-04-25T11:51:09;14.50;65.20
15483;DHT22;7843;50.330;7.312;2023-04-25T11:53:35;13.90;67.30
15483;DHT22;7843;50.330;7.312;2023-04-25T11:56:09;13.30;68.00
15483;DHT22;7843;50.330;7.312;2023-04-25T12:01:32;12.10;70.30
15483;DHT22;7843;50.330;7.312;2023-04-25T12:04:15;11.70;72.20
15483;DHT22;7843;50.330;7.312;2023-04-25T12:06:43;11.50;72.30
15483;DHT22;7843;50.330;7.312;2023-04-25T12:09:11;11.20;71.90
15483;DHT22;7843;50.330;7.312;2023-04-25T12:11:46;11.20;73.10
15483;DHT22;7843;50.330;7.312;2023-04-25T12:14:25;11.50;72.60
15483;DHT22;7843;50.330;7.312;2023-04-25T12:16:56;11.70;71.60
15483;DHT22;7843;50.330;7.312;2023-04-25T12:19:24;12.00;70.20
15483;DHT22;7843;50.330;7.312;2023-04-25T12:21:51;12.20;71.00
15483;DHT22;7843;50.330;7.312;2023-04-25T12:24:25;12.90;71.40
15483;DHT22;7843;50.330;7.312;2023-04-25T12:27:03;13.60;67.70
15483;DHT22;7843;50.330;7.312;2023-04-25T12:29:32;13.80;66.00
15483;DHT22;7843;50.330;7.312;2023-04-25T12:32:07;13.90;65.90
15483;DHT22;7843;50.330;7.312;2023-04-25T12:34:34;14.10;65.20
15483;DHT22;7843;50.330;7.312;2023-04-25T12:37:02;14.20;64.30
15483;DHT22;7843;50.330;7.312;2023-04-25T12:39:28;14.20;63.20
15483;DHT22;7843;50.330;7.312;2023-04-25T12:41:55;14.80;63.40
15483;DHT22;7843;50.330;7.312;2023-04-25T12:44:22;15.20;62.40
15483;DHT22;7843;50.330;7.312;2023-04-25T12:46:48;15.10;63.20
15483;DHT22;7843;50.330;7.312;2023-04-25T12:49:16;15.40;62.70
15483;DHT22;7843;50.330;7.312;2023-04-25T12:51:44;14.90;61.20
15483;DHT22;7843;50.330;7.312;2023-04-25T12:54:10;14.10;62.80
15483;DHT22;7843;50.330;7.312;2023-04-25T12:56:37;13.50;66.00
15483;DHT22;7843;50.330;7.312;2023-04-25T12:59:04;12.80;66.10
15483;DHT22;7843;50.330;7.312;2023-04-25T13:01:31;12.40;67.20
15483;DHT22;7843;50.330;7.312;2023-04-25T13:03:59;12.20;69.00
15483;DHT22;7843;50.330;7.312;2023-04-25T13:06:26;11.50;69.30
15483;DHT22;7843;50.330;7.312;2023-04-25T13:08:53;11.10;71.60
15483;DHT22;7843;50.330;7.312;2023-04-25T13:11:20;10.70;72.80
15483;DHT22;7843;50.330;7.312;2023-04-25T13:13:47;10.40;74.30
15483;DHT22;7843;50.330;7.312;2023-04-25T13:16:14;10.30;74.70
15483;DHT22;7843;50.330;7.312;2023-04-25T13:18:41;10.20;76.10
15483;DHT22;7843;50.330;7.312;2023-04-25T13:21:09;10.20;76.30
15483;DHT22;7843;50.330;7.312;2023-04-25T13:23:37;10.20;76.30
15483;DHT22;7843;50.330;7.312;2023-04-25T13:26:04;10.10;76.20
15483;DHT22;7843;50.330;7.312;2023-04-25T13:28:31;10.30;77.40
15483;DHT22;7843;50.330;7.312;2023-04-25T13:30:57;10.70;78.80
15483;DHT22;7843;50.330;7.312;2023-04-25T13:33:24;11.10;77.80
15483;DHT22;7843;50.330;7.312;2023-04-25T13:35:51;11.50;75.60
15483;DHT22;7843;50.330;7.312;2023-04-25T13:38:24;12.10;75.00
15483;DHT22;7843;50.330;7.312;2023-04-25T13:40:52;12.40;75.00
15483;DHT22;7843;50.330;7.312;2023-04-25T13:43:20;12.50;74.00
15483;DHT22;7843;50.330;7.312;2023-04-25T13:45:49;12.20;74.00
15483;DHT22;7843;50.330;7.312;2023-04-25T13:48:17;11.90;75.10
15483;DHT22;7843;50.330;7.312;2023-04-25T13:50:44;11.60;75.90
15483;DHT22;7843;50.330;7.312;2023-04-25T13:53:12;11.20;76.40
15483;DHT22;7843;50.330;7.312;2023-04-25T13:55:38;11.00;77.50
15483;DHT22;7843;50.330;7.312;2023-04-25T13:58:05;10.60;76.30
15483;DHT22;7843;50.330;7.312;2023-04-25T14:00:37;10.40;77.10
15483;DHT22;7843;50.330;7.312;2023-04-25T14:03:05;10.40;77.90
15483;DHT22;7843;50.330;7.312;2023-04-25T14:05:34;10.40;77.10
15483;DHT22;7843;50.330;7.312;2023-04-25T14:08:05;10.40;77.00
15483;DHT22;7843;50.330;7.312;2023-04-25T14:10:34;10.40;78.20
15483;DHT22;7843;50.330;7.312;2023-04-25T14:13:01;10.30;78.30
15483;DHT22;7843;50.330;7.312;2023-04-25T14:15:33;10.30;78.70
15483;DHT22;7843;50.330;7.312;2023-04-25T14:18:00;10.20;78.80
15483;DHT22;7843;50.330;7.312;2023-04-25T14:20:27;10.30;78.90
15483;DHT22;7843;50.330;7.312;2023-04-25T14:22:54;10.50;79.30
15483;DHT22;7843;50.330;7.312;2023-04-25T14:25:22;10.60;76.90
15483;DHT22;7843;50.330;7.312;2023-04-25T14:27:49;10.50;76.10
15483;DHT22;7843;50.330;7.312;2023-04-25T14:30:20;10.50;76.40
15483;DHT22;7843;50.330;7.312;2023-04-25T14:32:50;10.60;75.60
15483;DHT22;7843;50.330;7.312;2023-04-25T14:35:17;10.60;76.30
15483;DHT22;7843;50.330;7.312;2023-04-25T14:37:51;10.60;75.60
15483;DHT22;7843;50.330;7.312;2023-04-25T14:40:19;10.50;75.10
15483;DHT22;7843;50.330;7.312;2023-04-25T14:42:49;10.50;75.00
15483;DHT22;7843;50.330;7.312;2023-04-25T14:45:17;10.50;75.60
15483;DHT22;7843;50.330;7.312;2023-04-25T14:47:44;10.60;76.40
15483;DHT22;7843;50.330;7.312;2023-04-25T14:50:11;10.60;74.80
15483;DHT22;7843;50.330;7.312;2023-04-25T14:52:38;10.80;75.10
15483;DHT22;7843;50.330;7.312;2023-04-25T14:55:05;10.90;75.10
15483;DHT22;7843;50.330;7.312;2023-04-25T14:57:35;10.90;74.60
15483;DHT22;7843;50.330;7.312;2023-04-25T15:00:02;10.90;75.60
15483;DHT22;7843;50.330;7.312;2023-04-25T15:02:31;11.00;74.90
15483;DHT22;7843;50.330;7.312;2023-04-25T15:04:58;11.20;75.80
15483;DHT22;7843;50.330;7.312;2023-04-25T15:07:24;10.90;73.70
15483;DHT22;7843;50.330;7.312;2023-04-25T15:09:52;10.90;74.90
15483;DHT22;7843;50.330;7.312;2023-04-25T15:12:19;10.90;74.40
15483;DHT22;7843;50.330;7.312;2023-04-25T15:14:46;11.00;74.40
15483;DHT22;7843;50.330;7.312;2023-04-25T15:17:13;11.20;74.00
15483;DHT22;7843;50.330;7.312;2023-04-25T15:19:41;11.00;74.70
15483;DHT22;7843;50.330;7.312;2023-04-25T15:22:07;10.70;76.00
15483;DHT22;7843;50.330;7.312;2023-04-25T15:24:34;10.40;77.00
15483;DHT22;7843;50.330;7.312;2023-04-25T15:27:01;10.30;78.40
15483;DHT22;7843;50.330;7.312;2023-04-25T15:29:29;10.20;78.60
15483;DHT22;7843;50.330;7.312;2023-04-25T15:31:56;10.20;77.50
15483;DHT22;7843;50.330;7.312;2023-04-25T15:34:23;10.00;78.50
15483;DHT22;7843;50.330;7.312;2023-04-25T15:36:50;10.10;75.10
15483;DHT22;7843;50.330;7.312;2023-04-25T15:39:16;10.20;74.00
15483;DHT22;7843;50.330;7.312;2023-04-25T15:41:43;10.40;70.80
15483;DHT22;7843;50.330;7.312;2023-04-25T15:44:10;10.60;70.20
15483;DHT22;7843;50.330;7.312;2023-04-25T15:46:37;10.70;70.20
15483;DHT22;7843;50.330;7.312;2023-04-25T15:49:04;11.00;70.90
15483;DHT22;7843;50.330;7.312;2023-04-25T15:51:31;11.50;68.90
15483;DHT22;7843;50.330;7.312;2023-04-25T15:53:59;12.80;66.30
15483;DHT22;7843;50.330;7.312;2023-04-25T15:56:27;13.80;64.00
15483;DHT22;7843;50.330;7.312;2023-04-25T15:58:54;14.30;62.20
15483;DHT22;7843;50.330;7.312;2023-04-25T16:01:21;14.10;61.50
15483;DHT22;7843;50.330;7.312;2023-04-25T16:03:49;13.60;62.40